sensor_id;sensor_type;location;lat;lon;timestamp;pressure;altitude;pressure_sealevel;temperature;humidity
80198;BME280;69517;52.030;7.106;2024-03-07T00:01:36;101676.06;;;21.16;70.22
80198;BME280;69517;52.030;7.106;2024-03-07T00:04:04;101675.09;;;21.17;70.15
80198;BME280;69517;52.030;7.106;2024-03-07T00:06:31;101675.25;;;21.14;70.05
80198;BME280;69517;52.030;7.106;2024-03-07T00:08:58;101672.63;;;21.14;70.28
80198;BME280;69517;52.030;7.106;2024-03-07T00:11:24;101674.31;;;21.15;70.48
80198;BME280;69517;52.030;7.106;2024-03-07T00:13:50;101669.47;;;21.07;69.73
80198;BME280;69517;52.030;7.106;2024-03-07T00:16:17;101670.66;;;21.01;68.48
80198;BME280;69517;52.030;7.106;2024-03-07T00:18:43;101676.69;;;21.03;69.26
80198;BME280;69517;52.030;7.106;2024-03-07T00:21:11;101674.91;;;21.04;69.20
80198;BME280;69517;52.030;7.106;2024-03-07T00:23:37;101678.28;;;21.06;69.34
80198;BME280;69517;52.030;7.106;2024-03-07T00:26:03;101674.81;;;21.05;69.40
80198;BME280;69517;52.030;7.106;2024-03-07T00:28:30;101681.84;;;21.05;69.54
80198;BME280;69517;52.030;7.106;2024-03-07T00:31:00;101680.91;;;21.06;69.64
80198;BME280;69517;52.030;7.106;2024-03-07T00:33:26;101682.88;;;21.02;69.61
80198;BME280;69517;52.030;7.106;2024-03-07T00:35:53;101682.88;;;21.02;69.61
80198;BME280;69517;52.030;7.106;2024-03-07T00:38:21;101681.84;;;21.05;69.70
80198;BME280;69517;52.030;7.106;2024-03-07T00:40:48;101681.94;;;21.03;69.76
80198;BME280;69517;52.030;7.106;2024-03-07T00:43:14;101678.47;;;21.03;69.86
80198;BME280;69517;52.030;7.106;2024-03-07T00:45:41;101680.25;;;21.02;69.81
80198;BME280;69517;52.030;7.106;2024-03-07T00:48:07;101677.59;;;21.02;69.74
80198;BME280;69517;52.030;7.106;2024-03-07T00:50:34;101672.34;;;21.02;69.85
80198;BME280;69517;52.030;7.106;2024-03-07T00:53:00;101678.59;;;21.00;69.80
80198;BME280;69517;52.030;7.106;2024-03-07T00:55:28;101674.19;;;21.00;69.84
80198;BME280;69517;52.030;7.106;2024-03-07T00:57:55;101677.75;;;20.99;69.98
80198;BME280;69517;52.030;7.106;2024-03-07T01:00:21;101679.53;;;20.99;69.84
80198;BME280;69517;52.030;7.106;2024-03-07T01:02:48;101681.41;;;20.97;69.95
80198;BME280;69517;52.030;7.106;2024-03-07T01:05:18;101680.50;;;20.98;70.14
80198;BME280;69517;52.030;7.106;2024-03-07T01:07:45;101682.34;;;20.96;70.13
80198;BME280;69517;52.030;7.106;2024-03-07T01:10:12;101678.84;;;20.95;70.14
80198;BME280;69517;52.030;7.106;2024-03-07T01:12:40;101675.38;;;20.95;70.14
80198;BME280;69517;52.030;7.106;2024-03-07T01:15:08;101673.66;;;20.94;70.27
80198;BME280;69517;52.030;7.106;2024-03-07T01:17:36;101668.41;;;20.94;70.15
80198;BME280;69517;52.030;7.106;2024-03-07T01:20:03;101671.03;;;20.94;70.02
80198;BME280;69517;52.030;7.106;2024-03-07T01:22:29;101673.84;;;20.91;70.35
80198;BME280;69517;52.030;7.106;2024-03-07T01:24:56;101669.44;;;20.91;70.19
80198;BME280;69517;52.030;7.106;2024-03-07T01:27:22;101670.38;;;20.90;70.18
80198;BME280;69517;52.030;7.106;2024-03-07T01:29:50;101666.88;;;20.90;70.29
80198;BME280;69517;52.030;7.106;2024-03-07T01:32:18;101667.81;;;20.89;70.27
80198;BME280;69517;52.030;7.106;2024-03-07T01:34:44;101667.88;;;20.87;70.25
80198;BME280;69517;52.030;7.106;2024-03-07T01:37:11;101674.00;;;20.88;70.39
80198;BME280;69517;52.030;7.106;2024-03-07T01:39:37;101669.75;;;20.85;70.33
80198;BME280;69517;52.030;7.106;2024-03-07T01:42:03;101668.06;;;20.84;70.31
80198;BME280;69517;52.030;7.106;2024-03-07T01:44:30;101669.84;;;20.84;70.22
80198;BME280;69517;52.030;7.106;2024-03-07T01:46:59;101671.53;;;20.85;70.42
80198;BME280;69517;52.030;7.106;2024-03-07T01:49:28;101664.59;;;20.84;70.41
80198;BME280;69517;52.030;7.106;2024-03-07T01:51:54;101662.94;;;20.81;70.47
80198;BME280;69517;52.030;7.106;2024-03-07T01:54:20;101659.47;;;20.81;70.33
80198;BME280;69517;52.030;7.106;2024-03-07T01:56:47;101664.72;;;20.81;70.29
80198;BME280;69517;52.030;7.106;2024-03-07T01:59:13;101662.09;;;20.81;70.20
80198;BME280;69517;52.030;7.106;2024-03-07T02:01:41;101653.47;;;20.79;70.31
80198;BME280;69517;52.030;7.106;2024-03-07T02:04:09;101656.09;;;20.79;70.23
80198;BME280;69517;52.030;7.106;2024-03-07T02:06:35;101659.56;;;20.79;70.39
80198;BME280;69517;52.030;7.106;2024-03-07T02:09:02;101661.41;;;20.77;70.39
80198;BME280;69517;52.030;7.106;2024-03-07T02:11:30;101655.31;;;20.77;70.24
80198;BME280;69517;52.030;7.106;2024-03-07T02:13:57;101646.66;;;20.75;70.31
80198;BME280;69517;52.030;7.106;2024-03-07T02:16:23;101652.84;;;20.74;70.37
80198;BME280;69517;52.030;7.106;2024-03-07T02:18:50;101646.75;;;20.73;70.43
80198;BME280;69517;52.030;7.106;2024-03-07T02:21:18;101653.69;;;20.74;70.29
80198;BME280;69517;52.030;7.106;2024-03-07T02:23:44;101649.38;;;20.73;70.39
80198;BME280;69517;52.030;7.106;2024-03-07T02:26:11;101647.59;;;20.74;70.40
80198;BME280;69517;52.030;7.106;2024-03-07T02:28:37;101647.75;;;20.71;70.48
80198;BME280;69517;52.030;7.106;2024-03-07T02:31:04;101645.97;;;20.71;70.47
80198;BME280;69517;52.030;7.106;2024-03-07T02:33:31;101641.56;;;20.72;70.43
80198;BME280;69517;52.030;7.106;2024-03-07T02:35:58;101640.78;;;20.70;70.48
80198;BME280;69517;52.030;7.106;2024-03-07T02:38:25;101644.25;;;20.70;70.27
80198;BME280;69517;52.030;7.106;2024-03-07T02:40:52;101637.31;;;20.69;70.19
80198;BME280;69517;52.030;7.106;2024-03-07T02:43:18;101636.44;;;20.69;70.54
80198;BME280;69517;52.030;7.106;2024-03-07T02:45:44;101636.44;;;20.69;70.50
80198;BME280;69517;52.030;7.106;2024-03-07T02:48:11;101627.72;;;20.68;70.52
80198;BME280;69517;52.030;7.106;2024-03-07T02:50:37;101634.00;;;20.65;70.39
80198;BME280;69517;52.030;7.106;2024-03-07T02:53:03;101626.97;;;20.66;70.49
80198;BME280;69517;52.030;7.106;2024-03-07T02:55:32;101628.88;;;20.62;69.05
80198;BME280;69517;52.030;7.106;2024-03-07T02:57:59;101627.13;;;20.63;70.26
80198;BME280;69517;52.030;7.106;2024-03-07T03:00:25;101629.66;;;20.64;70.24
80198;BME280;69517;52.030;7.106;2024-03-07T03:02:54;101633.22;;;20.63;70.45
80198;BME280;69517;52.030;7.106;2024-03-07T03:05:21;101627.97;;;20.63;70.61
80198;BME280;69517;52.030;7.106;2024-03-07T03:07:48;101624.50;;;20.63;70.57
80198;BME280;69517;52.030;7.106;2024-03-07T03:10:20;101627.97;;;20.63;70.50
80198;BME280;69517;52.030;7.106;2024-03-07T03:12:52;101622.72;;;20.63;70.53
80198;BME280;69517;52.030;7.106;2024-03-07T03:15:19;101627.97;;;20.63;70.59
80198;BME280;69517;52.030;7.106;2024-03-07T03:17:46;101621.00;;;20.62;70.64
80198;BME280;69517;52.030;7.106;2024-03-07T03:20:13;101621.19;;;20.59;70.68
80198;BME280;69517;52.030;7.106;2024-03-07T03:22:49;101619.41;;;20.60;70.59
80198;BME280;69517;52.030;7.106;2024-03-07T03:25:15;101613.31;;;20.59;70.88
80198;BME280;69517;52.030;7.106;2024-03-07T03:27:42;101609.81;;;20.59;70.75
80198;BME280;69517;52.030;7.106;2024-03-07T03:30:11;101612.53;;;20.57;70.99
80198;BME280;69517;52.030;7.106;2024-03-07T03:32:39;101612.53;;;20.57;70.78
80198;BME280;69517;52.030;7.106;2024-03-07T03:35:06;101620.34;;;20.59;70.86
80198;BME280;69517;52.030;7.106;2024-03-07T03:37:32;101620.41;;;20.57;70.77
80198;BME280;69517;52.030;7.106;2024-03-07T03:39:59;101619.47;;;20.58;70.90
80198;BME280;69517;52.030;7.106;2024-03-07T03:42:25;101617.78;;;20.57;70.88
80198;BME280;69517;52.030;7.106;2024-03-07T03:44:51;101617.00;;;20.55;71.04
80198;BME280;69517;52.030;7.106;2024-03-07T03:47:19;101625.72;;;20.56;70.84
80198;BME280;69517;52.030;7.106;2024-03-07T03:49:45;101619.63;;;20.55;70.78
80198;BME280;69517;52.030;7.106;2024-03-07T03:52:12;101625.72;;;20.56;70.88
80198;BME280;69517;52.030;7.106;2024-03-07T03:54:38;101625.72;;;20.56;70.89
80198;BME280;69517;52.030;7.106;2024-03-07T03:57:05;101628.28;;;20.57;70.43
80198;BME280;69517;52.030;7.106;2024-03-07T03:59:32;101624.72;;;20.58;70.45
80198;BME280;69517;52.030;7.106;2024-03-07T04:01:58;101622.88;;;20.60;70.35
80198;BME280;69517;52.030;7.106;2024-03-07T04:04:26;101621.84;;;20.63;70.21
80198;BME280;69517;52.030;7.106;2024-03-07T04:06:53;101611.19;;;20.66;70.17
80198;BME280;69517;52.030;7.106;2024-03-07T04:09:19;101599.59;;;20.70;69.97
80198;BME280;69517;52.030;7.106;2024-03-07T04:11:45;101604.69;;;20.73;69.69
80198;BME280;69517;52.030;7.106;2024-03-07T04:14:12;101601.91;;;20.76;69.68
80198;BME280;69517;52.030;7.106;2024-03-07T04:16:39;101605.22;;;20.80;69.60
80198;BME280;69517;52.030;7.106;2024-03-07T04:19:06;101600.72;;;20.82;69.78
80198;BME280;69517;52.030;7.106;2024-03-07T04:21:35;101609.47;;;20.82;69.78
80198;BME280;69517;52.030;7.106;2024-03-07T04:24:02;101609.38;;;20.84;69.93
80198;BME280;69517;52.030;7.106;2024-03-07T04:26:29;101594.47;;;20.84;70.03
80198;BME280;69517;52.030;7.106;2024-03-07T04:28:55;101599.66;;;20.86;69.87
80198;BME280;69517;52.030;7.106;2024-03-07T04:31:23;101601.25;;;20.88;69.92
80198;BME280;69517;52.030;7.106;2024-03-07T04:33:49;101605.56;;;20.89;69.84
80198;BME280;69517;52.030;7.106;2024-03-07T04:36:16;101598.53;;;20.90;69.99
80198;BME280;69517;52.030;7.106;2024-03-07T04:38:44;101601.94;;;20.92;70.01
80198;BME280;69517;52.030;7.106;2024-03-07T04:41:11;101591.44;;;20.92;69.88
80198;BME280;69517;52.030;7.106;2024-03-07T04:43:37;101593.09;;;20.93;69.94
80198;BME280;69517;52.030;7.106;2024-03-07T04:46:04;101587.84;;;20.93;69.90
80198;BME280;69517;52.030;7.106;2024-03-07T04:48:31;101592.19;;;20.94;69.94
80198;BME280;69517;52.030;7.106;2024-03-07T04:50:58;101598.22;;;20.96;69.81
80198;BME280;69517;52.030;7.106;2024-03-07T04:53:24;101595.50;;;20.97;70.06
80198;BME280;69517;52.030;7.106;2024-03-07T04:55:52;101600.75;;;20.97;70.06
80198;BME280;69517;52.030;7.106;2024-03-07T04:58:18;101607.69;;;20.98;69.87
80198;BME280;69517;52.030;7.106;2024-03-07T05:00:44;101604.13;;;20.99;69.83
80198;BME280;69517;52.030;7.106;2024-03-07T05:03:11;101606.78;;;20.99;69.62
80198;BME280;69517;52.030;7.106;2024-03-07T05:05:37;101603.28;;;20.99;69.67
80198;BME280;69517;52.030;7.106;2024-03-07T05:08:04;101605.84;;;21.00;69.75
80198;BME280;69517;52.030;7.106;2024-03-07T05:10:30;101605.00;;;21.00;69.88
80198;BME280;69517;52.030;7.106;2024-03-07T05:12:58;101605.84;;;21.00;69.78
80198;BME280;69517;52.030;7.106;2024-03-07T05:15:24;101611.03;;;21.02;69.86
80198;BME280;69517;52.030;7.106;2024-03-07T05:17:51;101600.50;;;21.02;69.88
80198;BME280;69517;52.030;7.106;2024-03-07T05:20:18;101604.84;;;21.03;69.69
80198;BME280;69517;52.030;7.106;2024-03-07T05:22:45;101602.22;;;21.03;69.77
80198;BME280;69517;52.030;7.106;2024-03-07T05:25:15;101598.66;;;21.04;69.68
80198;BME280;69517;52.030;7.106;2024-03-07T05:27:43;101602.97;;;21.05;69.75
80198;BME280;69517;52.030;7.106;2024-03-07T05:30:12;101607.38;;;21.04;69.62
80198;BME280;69517;52.030;7.106;2024-03-07T05:32:38;101601.09;;;21.07;69.61
80198;BME280;69517;52.030;7.106;2024-03-07T05:35:05;101604.59;;;21.08;69.64
80198;BME280;69517;52.030;7.106;2024-03-07T05:37:31;101602.81;;;21.08;69.72
80198;BME280;69517;52.030;7.106;2024-03-07T05:39:58;101604.50;;;21.09;69.75
80198;BME280;69517;52.030;7.106;2024-03-07T05:42:24;101601.97;;;21.08;69.69
80198;BME280;69517;52.030;7.106;2024-03-07T05:44:51;101610.84;;;21.05;69.30
80198;BME280;69517;52.030;7.106;2024-03-07T05:47:20;101608.06;;;21.08;69.19
80198;BME280;69517;52.030;7.106;2024-03-07T05:49:46;101606.28;;;21.09;69.55
80198;BME280;69517;52.030;7.106;2024-03-07T05:52:13;101612.28;;;21.11;69.50
80198;BME280;69517;52.030;7.106;2024-03-07T05:54:40;101615.03;;;21.09;69.61
80198;BME280;69517;52.030;7.106;2024-03-07T05:57:05;101603.66;;;21.09;69.65
80198;BME280;69517;52.030;7.106;2024-03-07T05:59:32;101613.16;;;21.11;69.62
80198;BME280;69517;52.030;7.106;2024-03-07T06:01:58;101602.63;;;21.11;69.68
80198;BME280;69517;52.030;7.106;2024-03-07T06:04:26;101607.88;;;21.11;69.56
80198;BME280;69517;52.030;7.106;2024-03-07T06:06:52;101610.44;;;21.13;69.66
80198;BME280;69517;52.030;7.106;2024-03-07T06:09:19;101612.22;;;21.12;69.57
80198;BME280;69517;52.030;7.106;2024-03-07T06:11:46;101610.44;;;21.13;69.71
80198;BME280;69517;52.030;7.106;2024-03-07T06:14:13;101610.44;;;21.13;69.58
80198;BME280;69517;52.030;7.106;2024-03-07T06:16:39;101613.91;;;21.13;69.57
80198;BME280;69517;52.030;7.106;2024-03-07T06:19:07;101621.81;;;21.13;69.62
80198;BME280;69517;52.030;7.106;2024-03-07T06:21:36;101621.72;;;21.15;69.63
80198;BME280;69517;52.030;7.106;2024-03-07T06:24:04;101608.59;;;21.15;69.60
80198;BME280;69517;52.030;7.106;2024-03-07T06:26:33;101612.94;;;21.16;69.71
80198;BME280;69517;52.030;7.106;2024-03-07T06:29:11;101614.72;;;21.15;69.72
80198;BME280;69517;52.030;7.106;2024-03-07T06:31:37;101620.00;;;21.15;69.65
80198;BME280;69517;52.030;7.106;2024-03-07T06:34:04;101623.47;;;21.16;69.58
80198;BME280;69517;52.030;7.106;2024-03-07T06:36:30;101616.47;;;21.15;69.70
80198;BME280;69517;52.030;7.106;2024-03-07T06:38:59;101625.25;;;21.15;69.79
80198;BME280;69517;52.030;7.106;2024-03-07T06:41:25;101621.72;;;21.15;69.71
80198;BME280;69517;52.030;7.106;2024-03-07T06:43:52;101628.63;;;21.17;69.38
80198;BME280;69517;52.030;7.106;2024-03-07T06:46:20;101636.97;;;21.25;69.19
80198;BME280;69517;52.030;7.106;2024-03-07T06:48:46;101634.59;;;21.36;68.82
80198;BME280;69517;52.030;7.106;2024-03-07T06:51:13;101631.34;;;21.47;68.55
80198;BME280;69517;52.030;7.106;2024-03-07T06:53:39;101627.44;;;21.54;68.32
80198;BME280;69517;52.030;7.106;2024-03-07T06:56:07;101630.50;;;21.62;68.03
80198;BME280;69517;52.030;7.106;2024-03-07T06:58:33;101631.03;;;21.69;67.77
80198;BME280;69517;52.030;7.106;2024-03-07T07:01:00;101633.38;;;21.73;67.68
80198;BME280;69517;52.030;7.106;2024-03-07T07:03:26;101637.63;;;21.76;67.51
80198;BME280;69517;52.030;7.106;2024-03-07T07:05:54;101639.34;;;21.77;67.53
80198;BME280;69517;52.030;7.106;2024-03-07T07:08:20;101628.69;;;21.78;67.52
80198;BME280;69517;52.030;7.106;2024-03-07T07:10:47;101633.88;;;21.80;67.52
80198;BME280;69517;52.030;7.106;2024-03-07T07:13:14;101633.88;;;21.80;67.52
80198;BME280;69517;52.030;7.106;2024-03-07T07:15:41;101636.34;;;21.83;67.55
80198;BME280;69517;52.030;7.106;2024-03-07T07:18:08;101636.25;;;21.84;67.61
80198;BME280;69517;52.030;7.106;2024-03-07T07:20:35;101630.97;;;21.84;67.57
80198;BME280;69517;52.030;7.106;2024-03-07T07:23:02;101634.47;;;21.85;67.56
80198;BME280;69517;52.030;7.106;2024-03-07T07:25:28;101630.13;;;21.84;67.72
80198;BME280;69517;52.030;7.106;2024-03-07T07:27:55;101642.38;;;21.85;67.66
80198;BME280;69517;52.030;7.106;2024-03-07T07:30:23;101641.50;;;21.84;67.78
80198;BME280;69517;52.030;7.106;2024-03-07T07:32:49;101634.66;;;21.82;67.65
80198;BME280;69517;52.030;7.106;2024-03-07T07:35:16;101637.28;;;21.82;67.85
80198;BME280;69517;52.030;7.106;2024-03-07T07:37:43;101634.53;;;21.83;67.80
80198;BME280;69517;52.030;7.106;2024-03-07T07:40:11;101638.13;;;21.82;67.84
80198;BME280;69517;52.030;7.106;2024-03-07T07:42:39;101631.91;;;21.83;67.76
80198;BME280;69517;52.030;7.106;2024-03-07T07:45:07;101632.03;;;21.82;67.85
80198;BME280;69517;52.030;7.106;2024-03-07T07:47:37;101624.22;;;21.80;67.91
80198;BME280;69517;52.030;7.106;2024-03-07T07:50:06;101620.72;;;21.80;68.20
80198;BME280;69517;52.030;7.106;2024-03-07T07:52:39;101613.38;;;21.71;68.56
80198;BME280;69517;52.030;7.106;2024-03-07T07:55:05;101610.13;;;21.66;68.71
80198;BME280;69517;52.030;7.106;2024-03-07T07:57:39;101610.47;;;21.60;68.13
80198;BME280;69517;52.030;7.106;2024-03-07T08:00:07;101610.47;;;21.60;68.40
80198;BME280;69517;52.030;7.106;2024-03-07T08:02:35;101613.94;;;21.60;68.18
80198;BME280;69517;52.030;7.106;2024-03-07T08:05:02;101613.88;;;21.62;68.20
80198;BME280;69517;52.030;7.106;2024-03-07T08:07:30;101601.63;;;21.61;67.85
80198;BME280;69517;52.030;7.106;2024-03-07T08:09:56;101608.88;;;21.57;68.05
80198;BME280;69517;52.030;7.106;2024-03-07T08:12:23;101615.00;;;21.58;67.86
80198;BME280;69517;52.030;7.106;2024-03-07T08:14:49;101607.16;;;21.56;67.93
80198;BME280;69517;52.030;7.106;2024-03-07T08:17:15;101609.88;;;21.55;67.96
80198;BME280;69517;52.030;7.106;2024-03-07T08:19:42;101613.56;;;21.52;68.15
80198;BME280;69517;52.030;7.106;2024-03-07T08:22:09;101628.50;;;21.52;68.07
80198;BME280;69517;52.030;7.106;2024-03-07T08:24:36;101617.13;;;21.51;68.14
80198;BME280;69517;52.030;7.106;2024-03-07T08:27:02;101616.25;;;21.51;68.05
80198;BME280;69517;52.030;7.106;2024-03-07T08:29:28;101617.97;;;21.52;68.03
80198;BME280;69517;52.030;7.106;2024-03-07T08:31:55;101620.47;;;21.53;67.98
80198;BME280;69517;52.030;7.106;2024-03-07T08:34:21;101622.19;;;21.54;67.97
80198;BME280;69517;52.030;7.106;2024-03-07T08:36:48;101608.19;;;21.54;68.06
80198;BME280;69517;52.030;7.106;2024-03-07T08:39:15;101616.06;;;21.54;68.15
80198;BME280;69517;52.030;7.106;2024-03-07T08:41:44;101612.50;;;21.55;68.13
80198;BME280;69517;52.030;7.106;2024-03-07T08:44:11;101616.00;;;21.55;68.22
80198;BME280;69517;52.030;7.106;2024-03-07T08:46:38;101613.38;;;21.55;68.26
80198;BME280;69517;52.030;7.106;2024-03-07T08:49:06;101609.81;;;21.56;68.31
80198;BME280;69517;52.030;7.106;2024-03-07T08:51:33;101617.78;;;21.55;68.50
80198;BME280;69517;52.030;7.106;2024-03-07T08:53:59;101613.44;;;21.54;68.46
80198;BME280;69517;52.030;7.106;2024-03-07T08:56:27;101600.41;;;21.52;68.71
80198;BME280;69517;52.030;7.106;2024-03-07T08:58:53;101607.50;;;21.50;68.56
80198;BME280;69517;52.030;7.106;2024-03-07T09:01:19;101605.03;;;21.47;68.48
80198;BME280;69517;52.030;7.106;2024-03-07T09:03:46;101609.47;;;21.47;68.29
80198;BME280;69517;52.030;7.106;2024-03-07T09:06:12;101602.41;;;21.47;68.39
80198;BME280;69517;52.030;7.106;2024-03-07T09:08:40;101605.03;;;21.47;68.14
80198;BME280;69517;52.030;7.106;2024-03-07T09:11:08;101600.75;;;21.46;68.28
80198;BME280;69517;52.030;7.106;2024-03-07T09:13:35;101603.44;;;21.44;68.23
80198;BME280;69517;52.030;7.106;2024-03-07T09:16:02;101601.75;;;21.43;68.21
80198;BME280;69517;52.030;7.106;2024-03-07T09:18:30;101605.22;;;21.44;68.48
80198;BME280;69517;52.030;7.106;2024-03-07T09:20:56;101598.44;;;21.40;68.16
80198;BME280;69517;52.030;7.106;2024-03-07T09:23:23;101598.44;;;21.40;68.09
80198;BME280;69517;52.030;7.106;2024-03-07T09:25:49;101596.75;;;21.39;67.83
80198;BME280;69517;52.030;7.106;2024-03-07T09:28:15;101598.53;;;21.38;67.70
80198;BME280;69517;52.030;7.106;2024-03-07T09:30:43;101592.50;;;21.36;67.37
80198;BME280;69517;52.030;7.106;2024-03-07T09:33:10;101595.91;;;21.38;66.85
80198;BME280;69517;52.030;7.106;2024-03-07T09:35:36;101593.19;;;21.40;66.95
80198;BME280;69517;52.030;7.106;2024-03-07T09:38:04;101589.53;;;21.42;66.90
80198;BME280;69517;52.030;7.106;2024-03-07T09:40:31;101592.84;;;21.46;66.82
80198;BME280;69517;52.030;7.106;2024-03-07T09:42:59;101591.81;;;21.49;66.71
80198;BME280;69517;52.030;7.106;2024-03-07T09:45:28;101591.72;;;21.50;66.73
80198;BME280;69517;52.030;7.106;2024-03-07T09:47:56;101594.44;;;21.49;67.56
80198;BME280;69517;52.030;7.106;2024-03-07T09:50:23;101591.22;;;21.43;67.01
80198;BME280;69517;52.030;7.106;2024-03-07T09:52:52;101584.34;;;21.41;67.07
80198;BME280;69517;52.030;7.106;2024-03-07T09:55:19;101586.88;;;21.42;66.96
80198;BME280;69517;52.030;7.106;2024-03-07T09:57:46;101589.38;;;21.45;66.94
80198;BME280;69517;52.030;7.106;2024-03-07T10:00:13;101584.84;;;21.48;66.91
80198;BME280;69517;52.030;7.106;2024-03-07T10:02:47;101589.19;;;21.49;66.95
80198;BME280;69517;52.030;7.106;2024-03-07T10:05:15;101592.66;;;21.49;66.98
80198;BME280;69517;52.030;7.106;2024-03-07T10:07:43;101586.38;;;21.52;66.88
80198;BME280;69517;52.030;7.106;2024-03-07T10:10:10;101576.72;;;21.52;66.92
80198;BME280;69517;52.030;7.106;2024-03-07T10:12:37;101577.56;;;21.53;67.12
80198;BME280;69517;52.030;7.106;2024-03-07T10:15:04;101579.22;;;21.54;66.93
80198;BME280;69517;52.030;7.106;2024-03-07T10:17:31;101573.13;;;21.53;67.19
80198;BME280;69517;52.030;7.106;2024-03-07T10:19:57;101574.09;;;21.52;67.13
80198;BME280;69517;52.030;7.106;2024-03-07T10:22:27;101574.94;;;21.53;67.27
80198;BME280;69517;52.030;7.106;2024-03-07T10:24:54;101570.50;;;21.53;67.18
80198;BME280;69517;52.030;7.106;2024-03-07T10:27:21;101570.50;;;21.53;67.20
80198;BME280;69517;52.030;7.106;2024-03-07T10:29:48;101567.03;;;21.53;67.35
80198;BME280;69517;52.030;7.106;2024-03-07T10:32:18;101565.22;;;21.53;67.54
80198;BME280;69517;52.030;7.106;2024-03-07T10:34:45;101567.84;;;21.53;67.48
80198;BME280;69517;52.030;7.106;2024-03-07T10:37:13;101566.06;;;21.54;67.58
80198;BME280;69517;52.030;7.106;2024-03-07T10:39:43;101565.16;;;21.55;67.48
80198;BME280;69517;52.030;7.106;2024-03-07T10:42:09;101565.16;;;21.55;67.64
80198;BME280;69517;52.030;7.106;2024-03-07T10:44:40;101569.56;;;21.54;67.65
80198;BME280;69517;52.030;7.106;2024-03-07T10:47:10;101566.94;;;21.54;67.76
80198;BME280;69517;52.030;7.106;2024-03-07T10:49:37;101564.28;;;21.54;67.73
80198;BME280;69517;52.030;7.106;2024-03-07T10:52:10;101565.22;;;21.53;67.83
80198;BME280;69517;52.030;7.106;2024-03-07T10:54:47;101568.72;;;21.54;67.74
80198;BME280;69517;52.030;7.106;2024-03-07T10:57:16;101567.84;;;21.53;67.87
80198;BME280;69517;52.030;7.106;2024-03-07T10:59:48;101565.34;;;21.52;67.89
80198;BME280;69517;52.030;7.106;2024-03-07T11:02:18;101568.91;;;21.51;67.96
80198;BME280;69517;52.030;7.106;2024-03-07T11:04:47;101562.72;;;21.52;67.98
80198;BME280;69517;52.030;7.106;2024-03-07T11:07:14;101564.50;;;21.51;68.13
80198;BME280;69517;52.030;7.106;2024-03-07T11:09:41;101561.94;;;21.50;68.08
80198;BME280;69517;52.030;7.106;2024-03-07T11:12:09;101562.78;;;21.50;68.17
80198;BME280;69517;52.030;7.106;2024-03-07T11:14:36;101562.00;;;21.48;68.15
80198;BME280;69517;52.030;7.106;2024-03-07T11:17:04;101563.78;;;21.48;68.22
80198;BME280;69517;52.030;7.106;2024-03-07T11:19:31;101555.91;;;21.48;68.21
80198;BME280;69517;52.030;7.106;2024-03-07T11:22:01;101557.59;;;21.49;68.15
80198;BME280;69517;52.030;7.106;2024-03-07T11:24:35;101549.72;;;21.49;68.13
80198;BME280;69517;52.030;7.106;2024-03-07T11:27:02;101551.41;;;21.50;68.24
80198;BME280;69517;52.030;7.106;2024-03-07T11:32:19;101543.16;;;21.56;67.91
80198;BME280;69517;52.030;7.106;2024-03-07T11:34:46;101529.84;;;21.59;67.95
80198;BME280;69517;52.030;7.106;2024-03-07T11:37:16;101527.09;;;21.60;67.81
80198;BME280;69517;52.030;7.106;2024-03-07T11:39:43;101519.97;;;21.62;67.76
80198;BME280;69517;52.030;7.106;2024-03-07T11:42:18;101526.09;;;21.63;67.74
80198;BME280;69517;52.030;7.106;2024-03-07T11:44:45;101519.91;;;21.64;67.62
80198;BME280;69517;52.030;7.106;2024-03-07T11:47:12;101512.84;;;21.64;67.82
80198;BME280;69517;52.030;7.106;2024-03-07T11:49:40;101514.63;;;21.64;67.90
80198;BME280;69517;52.030;7.106;2024-03-07T11:52:06;101509.38;;;21.64;67.79
80198;BME280;69517;52.030;7.106;2024-03-07T11:54:36;101510.31;;;21.63;67.85
80198;BME280;69517;52.030;7.106;2024-03-07T11:57:05;101509.38;;;21.64;67.88
80198;BME280;69517;52.030;7.106;2024-03-07T11:59:38;101509.47;;;21.62;67.78
80198;BME280;69517;52.030;7.106;2024-03-07T12:02:04;101501.66;;;21.61;67.90
80198;BME280;69517;52.030;7.106;2024-03-07T12:04:31;101494.69;;;21.60;67.93
80198;BME280;69517;52.030;7.106;2024-03-07T12:07:01;101500.78;;;21.60;68.00
80198;BME280;69517;52.030;7.106;2024-03-07T12:09:31;101495.66;;;21.59;68.06
80198;BME280;69517;52.030;7.106;2024-03-07T12:12:01;101486.91;;;21.58;68.07
80198;BME280;69517;52.030;7.106;2024-03-07T12:14:27;101484.34;;;21.57;68.11
80198;BME280;69517;52.030;7.106;2024-03-07T12:16:54;101492.16;;;21.58;68.15
80198;BME280;69517;52.030;7.106;2024-03-07T12:19:21;101483.50;;;21.56;68.04
80198;BME280;69517;52.030;7.106;2024-03-07T12:21:48;101480.03;;;21.56;68.06
80198;BME280;69517;52.030;7.106;2024-03-07T12:24:16;101486.06;;;21.58;67.98
80198;BME280;69517;52.030;7.106;2024-03-07T12:26:43;101478.25;;;21.56;68.04
80198;BME280;69517;52.030;7.106;2024-03-07T12:29:10;101475.59;;;21.56;68.15
80198;BME280;69517;52.030;7.106;2024-03-07T12:31:37;101482.66;;;21.56;68.08
80198;BME280;69517;52.030;7.106;2024-03-07T12:34:03;101470.50;;;21.53;68.19
80198;BME280;69517;52.030;7.106;2024-03-07T12:36:30;101461.78;;;21.53;68.20
80198;BME280;69517;52.030;7.106;2024-03-07T12:38:59;101469.69;;;21.53;68.25
80198;BME280;69517;52.030;7.106;2024-03-07T12:41:35;101468.72;;;21.54;68.14
80198;BME280;69517;52.030;7.106;2024-03-07T12:44:02;101462.72;;;21.52;68.30
80198;BME280;69517;52.030;7.106;2024-03-07T12:46:28;101455.75;;;21.51;68.33
80198;BME280;69517;52.030;7.106;2024-03-07T12:48:54;101453.97;;;21.51;68.24
80198;BME280;69517;52.030;7.106;2024-03-07T12:51:23;101453.97;;;21.51;68.25
80198;BME280;69517;52.030;7.106;2024-03-07T12:53:49;101451.34;;;21.51;68.34